Aérodrome :
LOGIN :

S'inscrire | Disclaimer

   EN    FR    IT 

 










Légende :    VFR   VFR Marginal   IFR   IFR Intensif   IFR Très Intensif
Visi : 
Plafond : 
>= 8 km
>= 3000ft
5 à 8 km
1000 à 3000 ft
1500m à 5 km
500 à 1000 ft
800 à 1500m
200 à 500 ft
< 800m
< 200 ft
Symboles :   Orages  Brouillard  Fortes neiges  Fortes précipitations  Vent > 20 kt
SIGMETs :   Divers  Orages  Givrage  Turbulence  Onde Orograph.  Cendres Volcan.






- Altitude de l'aérodrome : 327 ft
- Code IATA : BHX


EGBB - Birmingham

DERNIER METAR :
  • 232220Z 10011KT 9999 BKN020 17/13 Q1015

METARs EXPIRÉS :
  • 232150Z 09010KT 9999 BKN020 18/13 Q1014
  • 232120Z 09010KT 9999 SCT018 OVC023 18/14 Q1014
  • 232050Z 05008KT 9999 BKN020 18/14 Q1014
  • 232020Z 07008KT 9999 BKN021 18/14 Q1014
  • 231950Z 07009KT 9999 BKN024 19/13 Q1014
  • 231920Z 08011KT 9999 BKN026 19/13 Q1014

TAF TAF EGBB
Valide du 23 à 18h jusqu'au 24 à 18h UTC


231657Z 2318/2418 08010KT 9999 SCT025
PROB30
TEMPO 2323/2404 BKN009
TEMPO 2404/2410 BKN009
TEMPO 2410/2414 6000 RA SHRA
PROB30
TEMPO 2410/2414 3000 +RA +SHRA BKN030CB
ATIS : +44 121 780 0910



MET'MAP, la Météo Aéronautique d'un coup d'oeil ! - Copyright ORBIFLY Décembre 2007 - Disclaimer

ORBIFLY MET'MAP TEAM :

Programmation & Développement : Alexandra Zaïnal
Sur une idée originale de : Baudouin d'Aumeries
Assistance à la programmation : Marc-Olivier Méhu
Soutien technique & logistique : Manuel Goepfert

Contact : metmap@orbifly.com




SOURCES & CREDITS :

   NOAA